Time;durP1;ratioP1;P1;durP2;ratioP2;P2;SDS_P1;SDS_P2;PMS_P1;PMS_P2;Temp;Humidity;BMP_temperature;BMP_pressure;BME280_temperature;BME280_humidity;BME280_pressure;Samples;Min_cycle;Max_cycle;Signal;HPM_P1;HPM_P2
2023/08/19 00:00:22;;;;;;;16.17;14.32;;;;;;;22.23;99.80;101105.38;5028749;28;20048;-70
2023/08/19 00:02:49;;;;;;;20.63;14.80;;;;;;;22.21;99.81;101098.41;5026749;28;20073;-73
2023/08/19 00:05:17;;;;;;;18.23;15.23;;;;;;;22.19;100.00;101103.91;5026437;28;20083;-73
2023/08/19 00:07:44;;;;;;;16.98;13.82;;;;;;;22.16;100.00;101099.63;5026024;28;20047;-73
2023/08/19 00:10:11;;;;;;;19.10;15.23;;;;;;;22.13;100.00;101097.16;5027049;28;20079;-71
2023/08/19 00:12:38;;;;;;;16.52;14.35;;;;;;;22.10;99.84;101100.06;5026276;28;20587;-71
2023/08/19 00:15:07;;;;;;;17.33;15.13;;;;;;;22.07;100.00;101094.97;5026569;28;20042;-72
2023/08/19 00:17:34;;;;;;;18.63;14.82;;;;;;;22.03;100.00;101091.63;5010439;28;20041;-71
2023/08/19 00:20:05;;;;;;;18.58;15.48;;;;;;;22.00;100.00;101091.88;5009117;28;20359;-71
2023/08/19 00:22:33;;;;;;;21.13;16.08;;;;;;;21.99;100.00;101094.66;5025952;28;20538;-73
2023/08/19 00:25:00;;;;;;;18.55;14.80;;;;;;;21.95;100.00;101091.34;5025426;28;20045;-71
2023/08/19 00:27:27;;;;;;;17.10;14.65;;;;;;;21.94;100.00;101092.31;5026361;28;20103;-72
2023/08/19 00:29:55;;;;;;;18.15;14.80;;;;;;;21.92;100.00;101090.72;5024892;28;20048;-72
2023/08/19 00:32:22;;;;;;;18.98;15.50;;;;;;;21.89;100.00;101081.09;5024199;28;20056;-71
2023/08/19 00:34:51;;;;;;;18.45;15.35;;;;;;;21.88;100.00;101087.41;5024862;28;20037;-71
2023/08/19 00:37:19;;;;;;;18.20;15.65;;;;;;;21.85;100.00;101084.94;5024300;28;20041;-71
2023/08/19 00:39:46;;;;;;;20.63;15.77;;;;;;;21.84;100.00;101091.28;5025455;28;20045;-71
2023/08/19 00:42:13;;;;;;;20.30;15.30;;;;;;;21.82;100.00;101083.38;5025551;28;20545;-71
2023/08/19 00:44:40;;;;;;;20.70;16.35;;;;;;;21.81;100.00;101092.38;5008123;28;20095;-71
2023/08/19 00:47:07;;;;;;;20.45;16.40;;;;;;;21.80;100.00;101087.13;5024054;28;20103;-71
2023/08/19 00:49:34;;;;;;;21.05;16.70;;;;;;;21.80;100.00;101082.63;5026255;28;20068;-71
2023/08/19 00:52:02;;;;;;;21.23;16.13;;;;;;;21.81;100.00;101081.66;5024925;28;20357;-71
2023/08/19 00:54:30;;;;;;;20.00;15.90;;;;;;;21.78;100.00;101081.03;5007509;28;20120;-72
2023/08/19 00:56:57;;;;;;;18.83;15.25;;;;;;;21.78;100.00;101086.38;5025736;28;20057;-72
2023/08/19 00:59:26;;;;;;;19.05;15.52;;;;;;;21.80;100.00;101079.09;5008574;28;20099;-71
2023/08/19 01:01:53;;;;;;;21.77;15.65;;;;;;;21.83;100.00;101073.47;5024426;28;20049;-71
2023/08/19 01:04:20;;;;;;;17.92;15.77;;;;;;;21.85;100.00;101080.47;5006486;28;20065;-71
2023/08/19 01:07:10;;;;;;;21.05;16.42;;;;;;;21.86;100.00;101081.31;4999274;28;20103;-71
2023/08/19 01:09:55;;;;;;;19.33;15.55;;;;;;;21.88;100.00;101080.22;5025300;28;20033;-71
2023/08/19 01:12:39;;;;;;;18.17;15.70;;;;;;;21.91;100.00;101086.31;5007393;28;20050;-72
2023/08/19 01:15:25;;;;;;;21.73;16.08;;;;;;;21.92;100.00;101091.59;5024165;28;20529;-72
2023/08/19 01:17:55;;;;;;;20.52;14.63;;;;;;;21.93;100.00;101084.38;4988724;28;20403;-72
2023/08/19 01:20:32;;;;;;;19.13;16.05;;;;;;;21.97;100.00;101088.56;5005814;28;20508;-72
2023/08/19 01:23:11;;;;;;;23.08;15.63;;;;;;;22.01;100.00;101081.97;5004858;28;20041;-72
2023/08/19 01:25:41;;;;;;;22.30;15.68;;;;;;;22.06;100.00;101070.91;5005677;28;20446;-73
2023/08/19 01:28:08;;;;;;;20.33;15.27;;;;;;;22.08;100.00;101061.75;5004921;28;20133;-72
2023/08/19 01:30:36;;;;;;;22.90;16.02;;;;;;;22.09;100.00;101070.69;5023010;28;20488;-72
2023/08/19 01:33:03;;;;;;;22.27;15.93;;;;;;;;;;5023431;28;20069;-73
2023/08/19 01:35:39;;;;;;;17.58;15.63;;;;;;;22.11;100.00;101074.09;5005815;28;20038;-72
2023/08/19 01:38:30;;;;;;;18.27;15.88;;;;;;;22.07;100.00;101067.25;5007219;28;20069;-72
2023/08/19 01:40:58;;;;;;;20.30;15.48;;;;;;;22.06;100.00;101076.25;5024192;28;20042;-72
2023/08/19 01:43:26;;;;;;;21.70;16.30;;;;;;;22.01;100.00;101064.06;5006716;28;20053;-72
2023/08/19 01:45:54;;;;;;;18.52;15.82;;;;;;;21.99;100.00;101065.13;5024121;28;20409;-72
2023/08/19 01:48:21;;;;;;;24.27;15.43;;;;;;;21.98;100.00;101076.84;5025170;28;20049;-72
2023/08/19 01:50:48;;;;;;;21.48;16.40;;;;;;;21.98;100.00;101072.34;5024897;28;20057;-73
2023/08/19 01:53:15;;;;;;;17.23;15.30;;;;;;;21.98;100.00;101072.34;4990110;28;20482;-71
2023/08/19 01:55:43;;;;;;;20.80;15.48;;;;;;;21.99;100.00;101059.75;5023788;28;20041;-72
2023/08/19 01:58:11;;;;;;;19.73;15.65;;;;;;;21.98;100.00;101058.03;5007225;28;20243;-72
2023/08/19 02:00:38;;;;;;;22.20;16.08;;;;;;;21.98;100.00;101058.91;5025118;28;20049;-72
2023/08/19 02:03:07;;;;;;;22.60;16.02;;;;;;;21.97;100.00;101051.00;5025502;28;20513;-72
2023/08/19 02:05:34;;;;;;;21.95;16.45;;;;;;;21.95;100.00;101052.94;5007149;28;20092;-72
2023/08/19 02:08:01;;;;;;;20.05;16.17;;;;;;;21.94;100.00;101043.16;5024167;28;20049;-72
2023/08/19 02:10:28;;;;;;;20.40;15.60;;;;;;;21.93;100.00;101046.81;5024168;28;20048;-72
2023/08/19 02:12:55;;;;;;;19.52;16.02;;;;;;;21.93;100.00;101038.75;5024121;28;20037;-72
2023/08/19 02:15:23;;;;;;;19.95;15.85;;;;;;;21.91;100.00;101038.03;5024332;28;20331;-72
2023/08/19 02:17:50;;;;;;;24.73;16.35;;;;;;;21.90;100.00;101026.44;5025107;28;20053;-72
2023/08/19 02:20:17;;;;;;;21.40;16.48;;;;;;;21.91;100.00;101030.84;5025838;28;20052;-72
2023/08/19 02:22:44;;;;;;;23.20;16.15;;;;;;;21.92;100.00;101035.25;5023054;28;20037;-72
2023/08/19 02:25:14;;;;;;;19.50;15.65;;;;;;;21.95;100.00;101034.16;5024132;28;20046;-72
2023/08/19 02:27:43;;;;;;;19.40;15.55;;;;;;;21.96;100.00;101039.38;5006036;28;20064;-72
2023/08/19 02:30:11;;;;;;;19.63;15.57;;;;;;;21.99;100.00;101028.44;5023277;28;20104;-72
2023/08/19 02:32:42;;;;;;;20.85;15.82;;;;;;;22.00;100.00;101026.59;5024618;28;20072;-72
2023/08/19 02:35:10;;;;;;;19.67;15.20;;;;;;;22.00;100.00;101024.78;5019284;28;20045;-72
2023/08/19 02:37:38;;;;;;;19.98;15.32;;;;;;;22.02;100.00;101025.53;5023673;28;20125;-72
2023/08/19 02:40:07;;;;;;;18.73;15.43;;;;;;;22.03;100.00;101021.84;5007265;28;20046;-72
2023/08/19 02:42:36;;;;;;;19.73;14.27;;;;;;;22.05;100.00;101026.22;5006482;28;20505;-72
2023/08/19 02:45:04;;;;;;;17.08;14.80;;;;;;;22.08;100.00;101031.38;5006588;28;20457;-72
2023/08/19 02:47:31;;;;;;;17.70;14.20;;;;;;;22.08;100.00;101023.31;5025600;28;20072;-72
2023/08/19 02:49:59;;;;;;;19.70;14.23;;;;;;;22.10;100.00;101021.38;5010241;28;20413;-72
2023/08/19 02:52:26;;;;;;;18.13;13.57;;;;;;;22.11;100.00;101015.03;5027134;28;20049;-72
2023/08/19 02:54:54;;;;;;;19.00;13.73;;;;;;;22.12;100.00;101025.66;4999949;28;20053;-72
2023/08/19 02:57:21;;;;;;;18.80;13.77;;;;;;;22.14;100.00;101028.22;5006913;28;20249;-72
2023/08/19 02:59:48;;;;;;;15.80;13.38;;;;;;;22.15;100.00;101032.63;5009630;28;20121;-72
2023/08/19 03:02:15;;;;;;;16.10;12.73;;;;;;;22.15;100.00;101025.44;5008126;28;20800;-72
2023/08/19 03:04:42;;;;;;;16.33;12.88;;;;;;;22.16;99.99;101028.97;5007996;28;20838;-72
2023/08/19 03:07:09;;;;;;;16.75;12.90;;;;;;;22.17;100.00;101028.00;5008304;28;20111;-72
2023/08/19 03:09:36;;;;;;;14.95;12.43;;;;;;;22.17;100.00;101018.13;5006027;28;20456;-72
2023/08/19 03:12:04;;;;;;;19.30;13.05;;;;;;;22.17;99.98;101028.88;4998855;28;20177;-72
2023/08/19 03:14:31;;;;;;;15.50;12.88;;;;;;;22.19;99.75;101020.69;5007542;28;20486;-72
2023/08/19 03:16:58;;;;;;;16.85;12.10;;;;;;;22.19;100.00;101015.31;5008752;28;20284;-72
2023/08/19 03:19:26;;;;;;;16.98;12.32;;;;;;;22.18;99.83;101009.06;5007560;28;20263;-72
2023/08/19 03:21:53;;;;;;;16.10;12.38;;;;;;;22.18;99.79;101009.06;5022503;28;20053;-71
2023/08/19 03:24:21;;;;;;;17.75;11.75;;;;;;;22.17;99.80;101010.06;5006077;28;20037;-72
2023/08/19 03:26:48;;;;;;;13.13;11.70;;;;;;;22.18;99.43;101002.84;5006376;28;20366;-72
2023/08/19 03:29:15;;;;;;;17.02;11.27;;;;;;;22.21;99.37;101005.31;5006103;28;20481;-71
2023/08/19 03:31:43;;;;;;;16.40;11.45;;;;;;;22.22;99.40;101000.78;5006735;28;20142;-71
2023/08/19 03:34:10;;;;;;;12.13;10.48;;;;;;;22.23;99.10;101005.19;5006039;28;20103;-72
2023/08/19 03:36:38;;;;;;;13.82;10.63;;;;;;;22.23;98.91;101010.56;5002756;28;20410;-72
2023/08/19 03:39:06;;;;;;;14.77;10.45;;;;;;;22.24;99.14;101006.91;5013000;28;20041;-71
2023/08/19 03:41:33;;;;;;;11.57;10.10;;;;;;;22.25;98.30;101006.78;5006890;28;20391;-71
2023/08/19 03:44:01;;;;;;;13.88;10.93;;;;;;;22.25;98.92;101008.63;5022145;28;20565;-71
2023/08/19 03:46:28;;;;;;;12.45;10.23;;;;;;;22.25;98.85;101009.47;5006672;28;20252;-71
2023/08/19 03:48:55;;;;;;;14.30;10.00;;;;;;;22.25;98.13;101006.78;5005632;28;20041;-71
2023/08/19 03:51:22;;;;;;;14.05;10.98;;;;;;;22.24;98.65;101015.78;5007840;28;20494;-73
2023/08/19 03:53:49;;;;;;;14.50;10.00;;;;;;;22.24;98.32;101014.94;5020670;28;20050;-73
2023/08/19 03:56:16;;;;;;;16.80;10.55;;;;;;;22.23;98.41;101016.75;5010471;28;20065;-73
2023/08/19 03:58:46;;;;;;;16.40;10.73;;;;;;;22.22;98.19;101017.78;5028583;28;20123;-71
2023/08/19 04:01:15;;;;;;;15.23;10.52;;;;;;;22.23;97.78;101013.25;5025666;28;20095;-73
2023/08/19 04:03:43;;;;;;;15.32;10.65;;;;;;;22.21;97.78;101009.81;5009092;28;20125;-71
2023/08/19 04:06:11;;;;;;;12.30;9.70;;;;;;;22.18;97.64;101003.69;4989477;28;20042;-71
2023/08/19 04:08:38;;;;;;;13.18;10.13;;;;;;;22.14;97.95;101002.25;5008354;28;20045;-73
2023/08/19 04:11:07;;;;;;;11.75;9.60;;;;;;;22.14;97.83;101001.38;5027077;28;20050;-72
2023/08/19 04:13:34;;;;;;;12.52;9.20;;;;;;;22.14;97.69;100998.69;5024765;28;20131;-71
2023/08/19 04:16:05;;;;;;;13.48;9.45;;;;;;;;;;5025316;28;20091;-71
2023/08/19 04:18:34;;;;;;;11.82;8.85;;;;;;;22.10;97.47;101003.44;5009424;28;20049;-71
2023/08/19 04:21:04;;;;;;;11.32;8.52;;;;;;;22.11;97.12;101004.31;5026628;28;20045;-73
2023/08/19 04:23:32;;;;;;;11.60;8.80;;;;;;;22.10;97.25;101002.59;5024766;28;20053;-72
2023/08/19 04:26:00;;;;;;;12.60;8.50;;;;;;;22.11;97.10;101007.00;5025843;28;20041;-71
2023/08/19 04:28:27;;;;;;;12.30;8.70;;;;;;;;;;5025045;28;20045;-71
2023/08/19 04:31:04;;;;;;;13.48;8.35;;;;;;;22.13;96.51;101010.41;5025119;28;20064;-71
2023/08/19 04:33:38;;;;;;;15.38;8.77;;;;;;;22.14;97.12;101012.97;5006938;28;20037;-71
2023/08/19 04:36:05;;;;;;;11.75;8.10;;;;;;;22.16;96.60;101015.53;5008686;28;20077;-72
2023/08/19 04:38:33;;;;;;;11.93;7.88;;;;;;;22.17;96.73;101007.38;5007590;28;20116;-72
2023/08/19 04:41:03;;;;;;;12.73;8.00;;;;;;;22.17;96.49;101009.19;5008205;28;20045;-72
2023/08/19 04:43:37;;;;;;;9.82;7.65;;;;;;;22.16;95.67;101005.66;5007750;28;20261;-73
2023/08/19 04:46:04;;;;;;;12.43;7.55;;;;;;;22.15;95.54;101001.28;5008466;28;20838;-73
2023/08/19 04:48:33;;;;;;;10.20;7.32;;;;;;;22.16;95.77;101004.78;5026790;28;20127;-71
2023/08/19 04:51:01;;;;;;;10.27;6.85;;;;;;;22.14;95.55;101004.06;5006999;28;20135;-73
2023/08/19 04:53:30;;;;;;;10.05;6.53;;;;;;;22.15;95.36;101013.81;5007541;28;20136;-72
2023/08/19 04:56:03;;;;;;;9.73;6.82;;;;;;;22.16;95.22;101011.03;5024889;28;20049;-71
2023/08/19 04:58:32;;;;;;;9.00;6.07;;;;;;;22.14;95.09;101018.34;5010801;28;20084;-70
2023/08/19 05:00:59;;;;;;;12.23;6.18;;;;;;;22.15;95.64;101013.81;5008152;28;20049;-72
2023/08/19 05:03:26;;;;;;;10.85;6.45;;;;;;;22.17;95.57;101012.75;5008303;28;20299;-70
2023/08/19 05:05:54;;;;;;;6.78;5.45;;;;;;;22.19;95.18;101023.38;5008324;28;20463;-73
2023/08/19 05:08:27;;;;;;;11.20;6.05;;;;;;;22.19;95.01;101032.25;5008492;28;20064;-72
2023/08/19 05:10:54;;;;;;;12.68;5.80;;;;;;;22.21;95.07;101040.22;5024392;28;20050;-72
2023/08/19 05:13:21;;;;;;;7.32;5.43;;;;;;;22.23;94.75;101037.41;5006915;28;20451;-71
2023/08/19 05:15:49;;;;;;;7.55;5.30;;;;;;;22.25;94.57;101047.03;5008335;28;20041;-73
2023/08/19 05:18:17;;;;;;;8.35;5.47;;;;;;;22.24;93.96;101042.66;5007619;28;20045;-73
2023/08/19 05:20:44;;;;;;;14.45;5.55;;;;;;;22.25;94.34;101046.19;5007227;28;20444;-73
2023/08/19 05:23:11;;;;;;;9.95;5.13;;;;;;;22.25;93.84;101049.72;5006655;28;20087;-73
2023/08/19 05:25:39;;;;;;;8.48;5.07;;;;;;;22.26;94.17;101043.38;5025169;28;20053;-71
2023/08/19 05:28:10;;;;;;;9.70;5.53;;;;;;;22.29;93.83;101034.22;5025341;28;20041;-71
2023/08/19 05:30:37;;;;;;;13.35;5.60;;;;;;;22.30;93.96;101033.25;5025604;28;20048;-73
2023/08/19 05:33:04;;;;;;;11.85;5.45;;;;;;;22.34;93.71;101040.97;5024483;28;20061;-73
2023/08/19 05:35:31;;;;;;;9.90;5.55;;;;;;;22.38;93.34;101046.09;5006517;28;20045;-72
2023/08/19 05:37:59;;;;;;;17.08;6.78;;;;;;;22.38;93.10;101041.59;5024572;28;20100;-73
2023/08/19 05:40:26;;;;;;;18.65;7.07;;;;;;;22.39;93.24;101043.28;5024144;28;20372;-73
2023/08/19 05:42:53;;;;;;;8.73;5.35;;;;;;;22.40;92.82;101036.09;5024597;28;20633;-73
2023/08/19 05:45:20;;;;;;;11.00;5.25;;;;;;;22.39;92.78;101039.75;5025275;28;20897;-73
2023/08/19 05:47:47;;;;;;;12.00;5.00;;;;;;;22.39;92.77;101031.72;5026726;28;20502;-72
2023/08/19 05:50:14;;;;;;;10.82;5.30;;;;;;;22.40;92.36;101039.66;5025350;28;20124;-72
2023/08/19 05:52:41;;;;;;;8.90;4.72;;;;;;;22.43;92.15;101036.75;5023143;28;20044;-72
2023/08/19 05:55:08;;;;;;;7.90;4.80;;;;;;;22.45;91.83;101042.88;5023375;28;20128;-73
2023/08/19 05:57:35;;;;;;;8.35;4.60;;;;;;;22.47;91.74;101048.97;5024946;28;20062;-71
2023/08/19 06:00:03;;;;;;;8.85;4.53;;;;;;;22.51;91.79;101054.09;5017791;28;20049;-72
2023/08/19 06:02:38;;;;;;;6.03;4.68;;;;;;;22.56;91.84;101052.75;5008054;28;20061;-73
2023/08/19 06:05:06;;;;;;;5.93;4.65;;;;;;;22.63;91.80;101062.06;5025076;28;20123;-73
2023/08/19 06:07:33;;;;;;;10.13;4.68;;;;;;;22.69;91.44;101062.56;5023633;28;20089;-73
2023/08/19 06:10:01;;;;;;;9.73;4.82;;;;;;;22.74;91.39;101057.69;5024766;28;20041;-72
2023/08/19 06:12:28;;;;;;;10.50;4.72;;;;;;;22.77;91.14;101065.50;5024926;28;20391;-73
2023/08/19 06:14:56;;;;;;;8.18;4.80;;;;;;;22.79;90.88;101067.06;5025484;28;20600;-72
2023/08/19 06:17:23;;;;;;;7.95;4.72;;;;;;;22.82;90.74;101065.13;5024804;28;20581;-73
2023/08/19 06:19:50;;;;;;;8.90;4.95;;;;;;;22.82;90.96;101073.19;5025011;28;20038;-72
2023/08/19 06:22:17;;;;;;;7.28;4.78;;;;;;;22.84;90.92;101071.25;5027451;28;20149;-71
2023/08/19 06:24:44;;;;;;;7.32;4.82;;;;;;;22.86;90.75;101078.19;5027577;28;20132;-73
2023/08/19 06:27:11;;;;;;;8.88;4.72;;;;;;;22.88;90.94;101072.72;5028641;28;20486;-73
2023/08/19 06:29:39;;;;;;;8.68;4.82;;;;;;;22.95;90.33;101068.56;5027835;28;20042;-72
2023/08/19 06:32:07;;;;;;;9.48;4.47;;;;;;;23.03;89.97;101059.91;5028865;28;20136;-73
2023/08/19 06:34:35;;;;;;;10.70;4.10;;;;;;;23.11;89.76;101057.44;5028270;28;20052;-72
2023/08/19 06:37:04;;;;;;;8.98;4.53;;;;;;;23.19;89.76;101068.47;5027752;28;20203;-71
2023/08/19 06:39:35;;;;;;;6.70;4.65;;;;;;;23.26;89.25;101064.28;5027699;28;20601;-73
2023/08/19 06:42:04;;;;;;;7.10;4.30;;;;;;;23.32;88.44;101072.88;5026900;28;20056;-73
2023/08/19 06:44:33;;;;;;;8.23;4.10;;;;;;;23.36;88.19;101063.53;5028261;28;20050;-72
2023/08/19 06:47:04;;;;;;;6.40;4.05;;;;;;;23.47;87.94;101068.91;5027635;28;20049;-71
2023/08/19 06:49:32;;;;;;;10.00;4.60;;;;;;;23.54;87.62;101072.84;5029786;28;20517;-73
2023/08/19 06:51:59;;;;;;;9.20;4.78;;;;;;;23.61;87.64;101059.69;5028139;28;20116;-72
2023/08/19 06:54:27;;;;;;;10.73;4.95;;;;;;;23.72;87.15;101069.59;5028302;28;20038;-72
2023/08/19 06:57:12;;;;;;;19.10;6.95;;;;;;;23.83;86.72;101068.69;5027260;28;20049;-72
2023/08/19 06:59:41;;;;;;;11.75;5.10;;;;;;;23.88;86.44;101067.34;5031011;28;20049;-73
2023/08/19 07:02:11;;;;;;;10.80;5.07;;;;;;;23.94;86.47;101063.28;5027740;28;20053;-72
2023/08/19 07:04:44;;;;;;;14.27;4.80;;;;;;;24.02;86.02;101066.19;5028494;28;20093;-72
2023/08/19 07:07:14;;;;;;;10.30;4.70;;;;;;;24.16;85.88;101085.75;5027984;28;20041;-72
2023/08/19 07:09:41;;;;;;;8.55;4.50;;;;;;;24.26;85.14;101085.81;5026322;28;20104;-70
2023/08/19 07:12:09;;;;;;;6.03;3.70;;;;;;;24.35;84.88;101091.28;5010207;28;20484;-72
2023/08/19 07:14:38;;;;;;;11.38;4.43;;;;;;;24.46;84.78;101097.59;5027082;28;20041;-73
2023/08/19 07:17:07;;;;;;;6.10;3.92;;;;;;;24.54;84.29;101089.69;5028339;28;20052;-73
2023/08/19 07:19:39;;;;;;;8.77;4.30;;;;;;;24.62;83.33;101095.25;5028923;28;20064;-72
2023/08/19 07:22:07;;;;;;;10.98;4.47;;;;;;;24.72;83.19;101100.75;5027851;28;20502;-73
2023/08/19 07:24:35;;;;;;;6.03;3.72;;;;;;;24.84;82.55;101100.69;5010471;28;20045;-73
2023/08/19 07:27:05;;;;;;;8.77;4.22;;;;;;;24.94;81.68;101105.13;5026462;28;20060;-73
2023/08/19 07:29:35;;;;;;;7.15;4.15;;;;;;;24.98;81.19;101104.88;5026584;28;20048;-72
2023/08/19 07:32:02;;;;;;;10.32;4.80;;;;;;;25.00;80.97;101117.22;5009490;28;20041;-73
2023/08/19 07:34:30;;;;;;;10.80;4.35;;;;;;;25.00;80.36;101117.22;5025849;28;20076;-72
2023/08/19 07:36:58;;;;;;;7.57;4.38;;;;;;;25.00;80.48;101113.69;5025779;28;20132;-73
2023/08/19 07:39:25;;;;;;;10.38;4.78;;;;;;;25.02;80.85;101126.03;5025600;28;20049;-73
2023/08/19 07:41:53;;;;;;;8.52;4.75;;;;;;;25.06;80.88;101127.50;5026544;28;20497;-73
2023/08/19 07:44:20;;;;;;;9.07;4.43;;;;;;;25.11;80.68;101119.00;5027081;28;20049;-73
2023/08/19 07:46:47;;;;;;;10.40;4.75;;;;;;;25.17;80.73;101115.75;5027281;28;20046;-73
2023/08/19 07:49:14;;;;;;;8.77;4.30;;;;;;;25.27;80.44;101122.03;5026529;28;20093;-73
2023/08/19 07:51:41;;;;;;;11.05;4.53;;;;;;;25.40;79.86;101120.97;5026856;28;20057;-71
2023/08/19 07:54:08;;;;;;;11.55;4.50;;;;;;;25.48;79.48;101126.53;5027895;28;20100;-72
2023/08/19 07:56:35;;;;;;;10.23;4.80;;;;;;;25.51;79.21;101120.88;5025490;28;20053;-71
2023/08/19 07:59:03;;;;;;;8.95;4.72;;;;;;;25.52;79.36;101128.00;5030467;28;20435;-71
2023/08/19 08:01:30;;;;;;;11.70;5.07;;;;;;;25.59;79.10;101128.25;5009001;28;20072;-72
2023/08/19 08:03:57;;;;;;;9.07;5.13;;;;;;;25.67;78.46;101131.16;5027046;28;20052;-72
2023/08/19 08:06:25;;;;;;;8.10;4.50;;;;;;;25.75;78.53;101130.44;5026658;28;20158;-72
2023/08/19 08:08:52;;;;;;;7.47;4.55;;;;;;;25.82;78.32;101125.34;5007335;28;20066;-71
2023/08/19 08:11:19;;;;;;;10.45;4.82;;;;;;;25.90;78.16;101128.19;5006292;28;20512;-72
2023/08/19 08:13:46;;;;;;;11.75;4.80;;;;;;;26.02;78.12;101135.16;5007448;28;20072;-72
2023/08/19 08:16:14;;;;;;;7.60;4.97;;;;;;;26.19;78.30;101140.91;5006968;28;20042;-72
2023/08/19 08:18:41;;;;;;;7.95;4.65;;;;;;;26.36;77.06;101136.63;5025127;28;20125;-72
2023/08/19 08:21:08;;;;;;;6.60;4.70;;;;;;;26.45;77.01;101141.19;5027042;28;20139;-72
2023/08/19 08:23:35;;;;;;;8.48;4.90;;;;;;;26.61;76.85;101146.00;5025910;28;20522;-72
2023/08/19 08:26:05;;;;;;;8.98;4.95;;;;;;;26.71;76.16;101143.28;5025656;28;20460;-72
2023/08/19 08:28:32;;;;;;;7.72;4.82;;;;;;;26.95;75.42;101158.22;5026256;28;20049;-73
2023/08/19 08:30:59;;;;;;;7.32;4.72;;;;;;;27.09;75.21;101163.13;5025904;28;20099;-73
2023/08/19 08:33:26;;;;;;;9.90;4.90;;;;;;;27.28;75.04;101161.38;5024687;28;20128;-72
2023/08/19 08:35:53;;;;;;;6.78;5.05;;;;;;;27.46;74.59;101161.47;5025760;28;20045;-72
2023/08/19 08:38:21;;;;;;;9.35;5.03;;;;;;;27.57;74.41;101145.03;5021981;28;20120;-73
2023/08/19 08:40:48;;;;;;;7.80;5.03;;;;;;;27.68;73.40;101149.38;5018819;28;20528;-72
2023/08/19 08:43:15;;;;;;;7.60;5.18;;;;;;;27.69;73.03;101159.19;5025771;28;20056;-72
2023/08/19 08:45:44;;;;;;;8.65;5.72;;;;;;;27.69;72.50;101147.53;5024235;28;20536;-72
2023/08/19 08:48:12;;;;;;;10.65;5.13;;;;;;;27.70;73.24;101141.13;5025585;28;20049;-73
2023/08/19 08:50:43;;;;;;;8.48;5.40;;;;;;;27.75;73.44;101163.16;5007958;28;20132;-72
2023/08/19 08:53:14;;;;;;;12.73;5.35;;;;;;;27.73;73.40;101151.63;5007331;28;20045;-73
2023/08/19 08:55:41;;;;;;;9.50;5.15;;;;;;;27.72;73.70;101166.19;5027373;28;20036;-72
2023/08/19 08:58:08;;;;;;;12.18;5.97;;;;;;;27.71;73.50;101167.19;5025654;28;20061;-73
2023/08/19 09:00:38;;;;;;;8.05;5.53;;;;;;;27.70;72.44;101171.75;5028164;28;20041;-73
2023/08/19 09:03:07;;;;;;;12.75;6.03;;;;;;;27.65;72.40;101176.78;5024497;28;20148;-73
2023/08/19 09:05:40;;;;;;;7.15;5.43;;;;;;;27.62;73.41;101189.75;5024294;28;20231;-73
2023/08/19 09:08:15;;;;;;;12.52;5.38;;;;;;;27.56;72.60;101193.91;5025570;28;20169;-73
2023/08/19 09:10:47;;;;;;;9.93;5.88;;;;;;;27.50;72.05;101199.91;5007335;28;20037;-73
2023/08/19 09:13:21;;;;;;;11.35;6.03;;;;;;;27.45;71.82;101200.34;5024694;28;20509;-73
2023/08/19 09:15:48;;;;;;;8.18;5.70;;;;;;;27.36;71.89;101193.09;5026401;28;20084;-73
2023/08/19 09:18:18;;;;;;;10.73;6.00;;;;;;;27.30;71.89;101205.38;5025496;28;20038;-72
2023/08/19 09:20:45;;;;;;;8.25;6.00;;;;;;;27.21;72.39;101226.06;5024918;28;20477;-73
2023/08/19 09:23:12;;;;;;;11.13;6.40;;;;;;;27.13;73.04;101245.72;5025737;28;20045;-71
2023/08/19 09:25:40;;;;;;;9.05;6.75;;;;;;;27.03;73.70;101263.84;5024836;28;20046;-73
2023/08/19 09:28:07;;;;;;;12.55;6.30;;;;;;;26.89;74.63;101251.59;5024625;28;20049;-73
2023/08/19 09:30:35;;;;;;;9.52;7.03;;;;;;;26.74;75.19;101258.41;5024687;28;20091;-73
2023/08/19 09:33:02;;;;;;;11.07;6.70;;;;;;;26.56;75.37;101233.91;5024451;28;20074;-73
2023/08/19 09:35:38;;;;;;;10.27;6.68;;;;;;;26.32;75.80;101202.78;5025052;28;20041;-73
2023/08/19 09:38:25;;;;;;;9.02;6.55;;;;;;;25.96;77.07;101208.66;5025517;28;20044;-72
2023/08/19 09:41:11;;;;;;;10.57;7.22;;;;;;;25.73;79.41;101226.94;5024445;28;20143;-73
2023/08/19 09:43:40;;;;;;;10.90;6.68;;;;;;;25.55;80.19;101224.84;5007624;28;20068;-73
2023/08/19 09:46:08;;;;;;;9.95;7.68;;;;;;;25.46;80.87;101209.47;5024695;28;20132;-73
2023/08/19 09:48:35;;;;;;;15.85;7.65;;;;;;;25.42;81.85;101230.47;5023897;28;20485;-73
2023/08/19 09:51:03;;;;;;;11.52;8.02;;;;;;;25.43;82.63;101221.41;5025607;28;20048;-73
2023/08/19 09:53:31;;;;;;;12.55;7.07;;;;;;;25.50;83.23;101231.63;5024181;28;20413;-73
2023/08/19 09:55:58;;;;;;;9.50;6.90;;;;;;;25.57;83.10;101230.97;5025179;28;20060;-73
2023/08/19 09:58:25;;;;;;;10.70;7.15;;;;;;;25.70;83.60;101241.53;5027188;28;20057;-73
2023/08/19 10:00:52;;;;;;;10.77;6.80;;;;;;;25.86;84.01;101242.88;5025033;28;20042;-73
2023/08/19 10:03:20;;;;;;;10.00;6.68;;;;;;;26.02;84.54;101242.38;5024302;28;20072;-72
2023/08/19 10:05:52;;;;;;;10.73;8.02;;;;;;;26.23;85.08;101252.25;5024446;28;20052;-72
2023/08/19 10:08:24;;;;;;;9.45;6.85;;;;;;;26.42;85.47;101249.56;5024631;28;20057;-73
2023/08/19 10:10:52;;;;;;;9.88;6.78;;;;;;;26.64;85.41;101272.78;5025680;28;20161;-71
2023/08/19 10:13:22;;;;;;;10.80;6.97;;;;;;;26.88;85.30;101282.34;5023942;28;20466;-71
2023/08/19 10:15:51;;;;;;;10.70;7.18;;;;;;;27.09;84.81;101279.47;5024588;28;20511;-71
2023/08/19 10:18:25;;;;;;;8.93;6.50;;;;;;;27.27;84.26;101265.19;4987465;28;20056;-73
2023/08/19 10:20:59;;;;;;;;;;;;;;;27.41;84.37;101270.16;5006656;28;20046;-72
2023/08/19 10:23:28;;;;;;;13.05;8.00;;;;;;;27.59;84.08;101277.53;5013925;28;19925;-72
2023/08/19 10:25:55;;;;;;;12.52;9.07;;;;;;;27.78;83.03;101287.44;5025307;28;20059;-72
2023/08/19 10:28:28;;;;;;;13.50;9.13;;;;;;;27.94;82.85;101289.50;5023752;28;20331;-72
2023/08/19 10:31:08;;;;;;;12.37;8.30;;;;;;;28.12;80.25;101292.31;5024713;28;20053;-73
2023/08/19 10:33:44;;;;;;;9.88;8.13;;;;;;;28.25;78.90;101288.38;5023835;28;20556;-73
2023/08/19 10:36:18;;;;;;;9.15;7.68;;;;;;;28.43;76.63;101297.41;5024504;28;20045;-73
2023/08/19 10:39:00;;;;;;;8.65;7.55;;;;;;;28.57;76.83;101309.56;5024510;28;20049;-73
2023/08/19 10:41:30;;;;;;;13.65;8.15;;;;;;;28.78;75.00;101311.16;5024105;28;20505;-71
2023/08/19 10:44:00;;;;;;;12.50;9.13;;;;;;;28.89;73.62;101307.34;5022739;28;20109;-73
2023/08/19 10:46:34;;;;;;;10.98;8.40;;;;;;;29.01;73.23;101307.94;5006260;28;20069;-73
2023/08/19 10:49:04;;;;;;;15.35;9.27;;;;;;;29.01;73.05;101310.66;5024189;28;20056;-71
2023/08/19 10:52:05;;;;;;;13.13;9.50;;;;;;;29.05;71.92;101309.34;5023765;28;20071;-71
2023/08/19 10:54:42;;;;;;;13.55;9.30;;;;;;;29.05;71.98;101307.47;5024383;28;20041;-72
2023/08/19 10:57:22;;;;;;;14.18;10.40;;;;;;;29.05;71.69;101310.19;5023711;28;20068;-72
2023/08/19 11:00:08;;;;;;;12.32;10.43;;;;;;;28.94;69.71;101310.47;5025740;28;20041;-72
2023/08/19 11:02:35;;;;;;;15.65;10.93;;;;;;;28.81;70.83;101308.13;5008972;28;20131;-74
2023/08/19 11:05:04;;;;;;;14.93;9.90;;;;;;;28.71;71.12;101324.50;5024612;28;20050;-73
2023/08/19 11:07:33;;;;;;;12.90;9.25;;;;;;;28.61;70.57;101318.25;5024083;28;20061;-74
2023/08/19 11:10:00;;;;;;;17.65;9.98;;;;;;;28.48;70.73;101330.31;5017044;28;20046;-72
2023/08/19 11:12:29;;;;;;;16.95;9.68;;;;;;;28.39;71.41;101336.66;5020049;28;20038;-72
2023/08/19 11:14:56;;;;;;;14.48;9.98;;;;;;;28.36;72.39;101347.78;5026782;28;20072;-72
2023/08/19 11:17:28;;;;;;;13.13;10.02;;;;;;;28.38;72.43;101353.94;5027873;28;20541;-71
2023/08/19 11:19:58;;;;;;;14.82;10.23;;;;;;;28.39;72.10;101354.78;5027702;28;20379;-73
2023/08/19 11:22:25;;;;;;;14.15;10.38;;;;;;;28.36;72.09;101364.94;5027443;28;20045;-73
2023/08/19 11:24:53;;;;;;;12.82;9.70;;;;;;;28.35;72.60;101363.22;5020772;28;20417;-73